Fish Creek, WI

10:14 PM CDT on September 15, 2014 (GMT -0500)
Menominee-Marinette Twin County | Change Station
CLOSE
Current Station
Airport
Location: Menominee,
Elevation: 627 ft
Nearby Weather Stations

Elev 627 ft 45.13 °N, 87.64 °W | Updated 19 minutes ago

Mostly Cloudy
Mostly Cloudy
52 °F
Feels Like 52 °F
N
10
Wind Variable Wind from NNW

Today
High -- | Low -- °F
--% Chance of Precip.
Yesterday
High -- | Low -- °F
Precip. -- in
6:27 AM 6:59 PM
Waning Gibbous, 50% visible
Pressure 30.12 in
Visibility 10.0 miles
Clouds Clear
Dew Point 43 °F
Humidity 71%
Rainfall 0.00 in
Snow Depth Not available.
UV 0 out of 12
Pollen 2.80 out of 12
Air Quality Not available.
Flu Activity Not available.
METAR KMNM 160255Z AUTO 34009KT 10SM CLR 11/06 A3012 RMK AO1 52010

More Conditions Fewer Conditions

Pressure 30.12 in
Visibility 10.0 miles
Clouds Clear
Dew Point 43 °F
Humidity 71%
Rainfall 0.00 in
Snow Depth Not available.
UV 0 out of 12
Pollen 2.80 out of 12
Air Quality Not available.
Flu Activity Not available.
METAR KMNM 160255Z AUTO 34009KT 10SM CLR 11/06 A3012 RMK AO1 52010

More Conditions Fewer Conditions

10-Day Weather Forecast

Almanac

Astronomy

Sep. 15, 2014 Rise Set
Actual Time 6:27 AM CDT 6:59 PM CDT
Civil Twilight 5:57 AM CDT 7:29 PM CDT
Nautical Twilight 5:22 AM CDT 8:04 PM CDT
Astronomical Twilight 4:46 AM CDT 8:40 PM CDT
Moon 11:26 PM CDT (9/15) 1:43 PM CDT (9/15)
Length of Visible Light 13h 31m
Length of Day
12h 32m
Tomorrow will be 3m 7s shorter.
Waning Gibbous, 50% of the Moon is Illuminated
Today
Waning Gibbous
Sep 24
New
Oct 1
First Quarter
Oct 8
Full
Oct 15
Last Quarter

Today's Extremes

State Highs State Lows

Community

WunderPhotos

Upload Photos

1,753,694 photos uploaded!

Nearby

Snow Depth

Station Depth Elevation
No new snow has been reported.

Earthquake Activity

City Distance Mag. Time & Date
No recent earthquake activity has been reported nearby.
Minimum magnitude displayed is 2.5.

Coastal Water Temperatures

Place Temperature
Menominee, MI 61.0 °F

Nearby Weather Stations